sensor_id;sensor_type;location;lat;lon;timestamp;P1;durP1;ratioP1;P2;durP2;ratioP2
39524;SDS011;25203;50.754;6.978;2023-09-19T00:00:33;9.35;;;2.15;;
39524;SDS011;25203;50.754;6.978;2023-09-19T00:02:35;5.18;;;1.70;;
39524;SDS011;25203;50.754;6.978;2023-09-19T00:04:36;8.48;;;1.70;;
39524;SDS011;25203;50.754;6.978;2023-09-19T00:06:39;4.95;;;2.08;;
39524;SDS011;25203;50.754;6.978;2023-09-19T00:08:40;4.10;;;1.63;;
39524;SDS011;25203;50.754;6.978;2023-09-19T00:10:43;5.25;;;2.30;;
39524;SDS011;25203;50.754;6.978;2023-09-19T00:12:44;7.15;;;1.83;;
39524;SDS011;25203;50.754;6.978;2023-09-19T00:14:45;4.20;;;1.83;;
39524;SDS011;25203;50.754;6.978;2023-09-19T00:16:46;5.68;;;1.85;;
39524;SDS011;25203;50.754;6.978;2023-09-19T00:18:46;5.57;;;1.83;;
39524;SDS011;25203;50.754;6.978;2023-09-19T00:20:49;5.78;;;2.20;;
39524;SDS011;25203;50.754;6.978;2023-09-19T00:22:51;8.15;;;2.10;;
39524;SDS011;25203;50.754;6.978;2023-09-19T00:24:52;5.43;;;1.70;;
39524;SDS011;25203;50.754;6.978;2023-09-19T00:26:53;6.00;;;1.65;;
39524;SDS011;25203;50.754;6.978;2023-09-19T00:28:55;6.63;;;1.90;;
39524;SDS011;25203;50.754;6.978;2023-09-19T00:30:57;10.48;;;2.55;;
39524;SDS011;25203;50.754;6.978;2023-09-19T00:33:01;8.73;;;2.72;;
39524;SDS011;25203;50.754;6.978;2023-09-19T00:35:05;10.63;;;2.13;;
39524;SDS011;25203;50.754;6.978;2023-09-19T00:37:08;7.97;;;2.35;;
39524;SDS011;25203;50.754;6.978;2023-09-19T00:39:11;4.78;;;2.10;;
39524;SDS011;25203;50.754;6.978;2023-09-19T00:41:11;5.55;;;1.67;;
39524;SDS011;25203;50.754;6.978;2023-09-19T00:43:13;6.25;;;2.10;;
39524;SDS011;25203;50.754;6.978;2023-09-19T00:45:14;4.93;;;2.10;;
39524;SDS011;25203;50.754;6.978;2023-09-19T00:47:16;8.18;;;1.92;;
39524;SDS011;25203;50.754;6.978;2023-09-19T00:49:17;5.85;;;1.90;;
39524;SDS011;25203;50.754;6.978;2023-09-19T00:51:20;6.45;;;1.65;;
39524;SDS011;25203;50.754;6.978;2023-09-19T00:53:22;7.75;;;2.25;;
39524;SDS011;25203;50.754;6.978;2023-09-19T00:55:25;9.55;;;2.63;;
39524;SDS011;25203;50.754;6.978;2023-09-19T00:57:30;5.63;;;2.45;;
39524;SDS011;25203;50.754;6.978;2023-09-19T00:59:32;8.85;;;1.80;;
39524;SDS011;25203;50.754;6.978;2023-09-19T01:01:33;5.93;;;2.25;;
39524;SDS011;25203;50.754;6.978;2023-09-19T01:03:34;7.55;;;2.42;;
39524;SDS011;25203;50.754;6.978;2023-09-19T01:05:36;4.63;;;2.00;;
39524;SDS011;25203;50.754;6.978;2023-09-19T01:07:36;9.00;;;2.78;;
39524;SDS011;25203;50.754;6.978;2023-09-19T01:09:40;9.48;;;1.73;;
39524;SDS011;25203;50.754;6.978;2023-09-19T01:11:43;9.43;;;2.63;;
39524;SDS011;25203;50.754;6.978;2023-09-19T01:13:51;12.95;;;3.17;;
39524;SDS011;25203;50.754;6.978;2023-09-19T01:16:20;15.02;;;2.45;;
39524;SDS011;25203;50.754;6.978;2023-09-19T01:27:39;7.70;;;2.13;;
39524;SDS011;25203;50.754;6.978;2023-09-19T01:30:14;6.88;;;2.55;;
39524;SDS011;25203;50.754;6.978;2023-09-19T01:32:22;8.85;;;2.13;;
39524;SDS011;25203;50.754;6.978;2023-09-19T01:34:24;5.45;;;1.80;;
39524;SDS011;25203;50.754;6.978;2023-09-19T01:36:27;11.13;;;2.10;;
39524;SDS011;25203;50.754;6.978;2023-09-19T01:38:29;7.20;;;2.10;;
39524;SDS011;25203;50.754;6.978;2023-09-19T01:40:29;10.70;;;2.45;;
39524;SDS011;25203;50.754;6.978;2023-09-19T01:46:46;6.78;;;2.13;;
39524;SDS011;25203;50.754;6.978;2023-09-19T01:49:50;9.50;;;2.55;;
39524;SDS011;25203;50.754;6.978;2023-09-19T01:51:42;14.38;;;2.55;;
39524;SDS011;25203;50.754;6.978;2023-09-19T01:54:08;7.90;;;2.35;;
39524;SDS011;25203;50.754;6.978;2023-09-19T01:56:16;11.90;;;2.58;;
39524;SDS011;25203;50.754;6.978;2023-09-19T02:00:46;13.98;;;2.97;;
39524;SDS011;25203;50.754;6.978;2023-09-19T02:02:52;10.15;;;3.22;;
39524;SDS011;25203;50.754;6.978;2023-09-19T02:04:55;9.75;;;2.90;;
39524;SDS011;25203;50.754;6.978;2023-09-19T02:06:56;7.07;;;2.63;;
39524;SDS011;25203;50.754;6.978;2023-09-19T02:08:57;11.00;;;2.47;;
39524;SDS011;25203;50.754;6.978;2023-09-19T02:10:58;14.95;;;3.00;;
39524;SDS011;25203;50.754;6.978;2023-09-19T02:12:59;8.65;;;2.70;;
39524;SDS011;25203;50.754;6.978;2023-09-19T02:15:00;7.35;;;2.45;;
39524;SDS011;25203;50.754;6.978;2023-09-19T02:17:02;10.05;;;2.35;;
39524;SDS011;25203;50.754;6.978;2023-09-19T02:19:06;12.18;;;3.00;;
39524;SDS011;25203;50.754;6.978;2023-09-19T02:21:07;11.27;;;3.72;;
39524;SDS011;25203;50.754;6.978;2023-09-19T02:23:10;11.73;;;2.65;;
39524;SDS011;25203;50.754;6.978;2023-09-19T02:25:10;16.00;;;2.88;;
39524;SDS011;25203;50.754;6.978;2023-09-19T02:27:11;14.52;;;3.17;;
39524;SDS011;25203;50.754;6.978;2023-09-19T02:29:14;8.50;;;2.53;;
39524;SDS011;25203;50.754;6.978;2023-09-19T02:31:15;8.10;;;2.67;;
39524;SDS011;25203;50.754;6.978;2023-09-19T02:33:16;14.52;;;3.40;;
39524;SDS011;25203;50.754;6.978;2023-09-19T02:35:17;14.68;;;3.17;;
39524;SDS011;25203;50.754;6.978;2023-09-19T02:37:21;8.38;;;2.75;;
39524;SDS011;25203;50.754;6.978;2023-09-19T02:39:22;20.00;;;3.45;;
39524;SDS011;25203;50.754;6.978;2023-09-19T02:41:23;7.65;;;2.40;;
39524;SDS011;25203;50.754;6.978;2023-09-19T02:43:24;11.05;;;2.58;;
39524;SDS011;25203;50.754;6.978;2023-09-19T02:45:24;14.70;;;3.13;;
39524;SDS011;25203;50.754;6.978;2023-09-19T02:47:25;14.23;;;2.85;;
39524;SDS011;25203;50.754;6.978;2023-09-19T02:49:27;9.10;;;2.90;;
39524;SDS011;25203;50.754;6.978;2023-09-19T02:51:27;8.40;;;2.97;;
39524;SDS011;25203;50.754;6.978;2023-09-19T02:53:28;11.90;;;2.88;;
39524;SDS011;25203;50.754;6.978;2023-09-19T02:55:30;14.45;;;2.92;;
39524;SDS011;25203;50.754;6.978;2023-09-19T02:57:31;12.10;;;2.55;;
39524;SDS011;25203;50.754;6.978;2023-09-19T02:59:33;16.83;;;2.30;;
39524;SDS011;25203;50.754;6.978;2023-09-19T03:01:33;12.55;;;2.70;;
39524;SDS011;25203;50.754;6.978;2023-09-19T03:03:34;13.18;;;2.88;;
39524;SDS011;25203;50.754;6.978;2023-09-19T03:05:37;12.65;;;3.70;;
39524;SDS011;25203;50.754;6.978;2023-09-19T03:07:38;16.35;;;3.13;;
39524;SDS011;25203;50.754;6.978;2023-09-19T03:09:39;10.80;;;2.80;;
39524;SDS011;25203;50.754;6.978;2023-09-19T03:11:40;16.63;;;3.28;;
39524;SDS011;25203;50.754;6.978;2023-09-19T03:13:42;13.30;;;3.08;;
39524;SDS011;25203;50.754;6.978;2023-09-19T03:15:44;9.82;;;2.90;;
39524;SDS011;25203;50.754;6.978;2023-09-19T03:17:47;17.90;;;4.15;;
39524;SDS011;25203;50.754;6.978;2023-09-19T03:19:49;16.27;;;3.17;;
39524;SDS011;25203;50.754;6.978;2023-09-19T03:21:50;12.95;;;3.15;;
39524;SDS011;25203;50.754;6.978;2023-09-19T03:23:51;10.43;;;3.03;;
39524;SDS011;25203;50.754;6.978;2023-09-19T03:25:52;12.65;;;3.00;;
39524;SDS011;25203;50.754;6.978;2023-09-19T03:27:53;13.20;;;3.30;;
39524;SDS011;25203;50.754;6.978;2023-09-19T03:29:53;14.68;;;3.70;;
39524;SDS011;25203;50.754;6.978;2023-09-19T03:31:54;17.60;;;3.70;;
39524;SDS011;25203;50.754;6.978;2023-09-19T03:33:54;14.30;;;3.00;;
39524;SDS011;25203;50.754;6.978;2023-09-19T03:35:55;7.40;;;2.38;;
39524;SDS011;25203;50.754;6.978;2023-09-19T03:37:58;12.93;;;3.40;;
39524;SDS011;25203;50.754;6.978;2023-09-19T03:39:59;11.68;;;3.30;;
39524;SDS011;25203;50.754;6.978;2023-09-19T03:42:04;8.98;;;3.25;;
39524;SDS011;25203;50.754;6.978;2023-09-19T03:44:05;9.38;;;2.60;;
39524;SDS011;25203;50.754;6.978;2023-09-19T03:46:05;12.43;;;2.85;;
39524;SDS011;25203;50.754;6.978;2023-09-19T03:48:11;14.38;;;3.33;;
39524;SDS011;25203;50.754;6.978;2023-09-19T03:50:11;14.25;;;3.58;;
39524;SDS011;25203;50.754;6.978;2023-09-19T03:52:15;10.27;;;2.78;;
39524;SDS011;25203;50.754;6.978;2023-09-19T03:54:15;10.18;;;2.88;;
39524;SDS011;25203;50.754;6.978;2023-09-19T03:56:19;16.38;;;3.05;;
39524;SDS011;25203;50.754;6.978;2023-09-19T03:58:20;10.85;;;2.90;;
39524;SDS011;25203;50.754;6.978;2023-09-19T04:00:20;10.45;;;3.17;;
39524;SDS011;25203;50.754;6.978;2023-09-19T04:02:23;13.23;;;2.58;;
39524;SDS011;25203;50.754;6.978;2023-09-19T04:04:24;12.63;;;3.67;;
39524;SDS011;25203;50.754;6.978;2023-09-19T04:06:25;11.25;;;2.83;;
39524;SDS011;25203;50.754;6.978;2023-09-19T04:08:27;11.02;;;2.83;;
39524;SDS011;25203;50.754;6.978;2023-09-19T04:10:27;11.23;;;2.95;;
39524;SDS011;25203;50.754;6.978;2023-09-19T04:12:28;12.98;;;2.88;;
39524;SDS011;25203;50.754;6.978;2023-09-19T04:14:29;10.23;;;2.95;;
39524;SDS011;25203;50.754;6.978;2023-09-19T04:16:30;10.27;;;3.17;;
39524;SDS011;25203;50.754;6.978;2023-09-19T04:18:30;12.93;;;3.00;;
39524;SDS011;25203;50.754;6.978;2023-09-19T04:20:33;11.88;;;3.78;;
39524;SDS011;25203;50.754;6.978;2023-09-19T04:22:34;14.38;;;2.95;;
39524;SDS011;25203;50.754;6.978;2023-09-19T04:24:34;12.30;;;2.92;;
39524;SDS011;25203;50.754;6.978;2023-09-19T04:26:35;10.23;;;2.60;;
39524;SDS011;25203;50.754;6.978;2023-09-19T04:28:36;8.80;;;2.78;;
39524;SDS011;25203;50.754;6.978;2023-09-19T04:30:38;7.97;;;3.22;;
39524;SDS011;25203;50.754;6.978;2023-09-19T04:32:41;11.90;;;3.58;;
39524;SDS011;25203;50.754;6.978;2023-09-19T04:34:42;11.98;;;3.42;;
39524;SDS011;25203;50.754;6.978;2023-09-19T04:36:43;12.75;;;3.00;;
39524;SDS011;25203;50.754;6.978;2023-09-19T04:38:43;16.45;;;3.15;;
39524;SDS011;25203;50.754;6.978;2023-09-19T04:40:44;11.77;;;2.63;;
39524;SDS011;25203;50.754;6.978;2023-09-19T04:42:45;10.30;;;3.08;;
39524;SDS011;25203;50.754;6.978;2023-09-19T04:44:53;12.95;;;3.28;;
39524;SDS011;25203;50.754;6.978;2023-09-19T04:46:54;15.55;;;3.15;;
39524;SDS011;25203;50.754;6.978;2023-09-19T04:48:55;14.70;;;2.92;;
39524;SDS011;25203;50.754;6.978;2023-09-19T04:50:55;13.73;;;2.85;;
39524;SDS011;25203;50.754;6.978;2023-09-19T04:52:56;13.80;;;3.17;;
39524;SDS011;25203;50.754;6.978;2023-09-19T04:54:56;14.88;;;3.38;;
39524;SDS011;25203;50.754;6.978;2023-09-19T04:56:57;13.10;;;3.35;;
39524;SDS011;25203;50.754;6.978;2023-09-19T04:58:58;13.18;;;2.88;;
39524;SDS011;25203;50.754;6.978;2023-09-19T05:00:59;15.23;;;3.17;;
39524;SDS011;25203;50.754;6.978;2023-09-19T05:03:04;13.20;;;2.80;;
39524;SDS011;25203;50.754;6.978;2023-09-19T05:05:09;13.48;;;3.70;;
39524;SDS011;25203;50.754;6.978;2023-09-19T05:07:18;15.05;;;2.88;;
39524;SDS011;25203;50.754;6.978;2023-09-19T05:09:21;18.35;;;3.42;;
39524;SDS011;25203;50.754;6.978;2023-09-19T05:11:22;15.88;;;3.40;;
39524;SDS011;25203;50.754;6.978;2023-09-19T05:13:24;15.15;;;3.17;;
39524;SDS011;25203;50.754;6.978;2023-09-19T05:15:25;11.60;;;2.85;;
39524;SDS011;25203;50.754;6.978;2023-09-19T05:17:25;12.18;;;3.15;;
39524;SDS011;25203;50.754;6.978;2023-09-19T05:19:26;9.32;;;2.50;;
39524;SDS011;25203;50.754;6.978;2023-09-19T05:21:27;9.57;;;2.50;;
39524;SDS011;25203;50.754;6.978;2023-09-19T05:23:31;10.45;;;2.45;;
39524;SDS011;25203;50.754;6.978;2023-09-19T05:25:31;15.02;;;3.67;;
39524;SDS011;25203;50.754;6.978;2023-09-19T05:27:32;9.98;;;2.78;;
39524;SDS011;25203;50.754;6.978;2023-09-19T05:29:33;11.13;;;2.60;;
39524;SDS011;25203;50.754;6.978;2023-09-19T05:31:34;9.63;;;2.53;;
39524;SDS011;25203;50.754;6.978;2023-09-19T05:33:36;9.68;;;2.83;;
39524;SDS011;25203;50.754;6.978;2023-09-19T05:35:37;12.60;;;3.35;;
39524;SDS011;25203;50.754;6.978;2023-09-19T05:37:39;12.40;;;2.53;;
39524;SDS011;25203;50.754;6.978;2023-09-19T05:39:40;12.57;;;3.13;;
39524;SDS011;25203;50.754;6.978;2023-09-19T05:41:40;14.20;;;2.75;;
39524;SDS011;25203;50.754;6.978;2023-09-19T05:43:41;14.95;;;2.60;;
39524;SDS011;25203;50.754;6.978;2023-09-19T05:45:43;12.77;;;3.08;;
39524;SDS011;25203;50.754;6.978;2023-09-19T05:47:45;12.52;;;3.10;;
39524;SDS011;25203;50.754;6.978;2023-09-19T05:49:46;10.90;;;2.90;;
39524;SDS011;25203;50.754;6.978;2023-09-19T05:51:48;13.73;;;2.55;;
39524;SDS011;25203;50.754;6.978;2023-09-19T05:53:48;12.82;;;2.97;;
39524;SDS011;25203;50.754;6.978;2023-09-19T05:55:50;7.93;;;2.88;;
39524;SDS011;25203;50.754;6.978;2023-09-19T05:57:53;13.30;;;3.35;;
39524;SDS011;25203;50.754;6.978;2023-09-19T05:59:54;11.45;;;3.65;;
39524;SDS011;25203;50.754;6.978;2023-09-19T06:01:54;8.73;;;2.95;;
39524;SDS011;25203;50.754;6.978;2023-09-19T06:03:55;12.63;;;3.70;;
39524;SDS011;25203;50.754;6.978;2023-09-19T06:05:55;8.63;;;2.70;;
39524;SDS011;25203;50.754;6.978;2023-09-19T06:07:57;12.23;;;2.85;;
39524;SDS011;25203;50.754;6.978;2023-09-19T06:10:01;9.30;;;2.63;;
39524;SDS011;25203;50.754;6.978;2023-09-19T06:12:03;12.57;;;2.97;;
39524;SDS011;25203;50.754;6.978;2023-09-19T06:14:04;8.20;;;2.45;;
39524;SDS011;25203;50.754;6.978;2023-09-19T06:16:05;11.35;;;3.80;;
39524;SDS011;25203;50.754;6.978;2023-09-19T06:18:10;15.65;;;2.97;;
39524;SDS011;25203;50.754;6.978;2023-09-19T06:20:14;12.48;;;3.40;;
39524;SDS011;25203;50.754;6.978;2023-09-19T06:22:18;9.13;;;2.97;;
39524;SDS011;25203;50.754;6.978;2023-09-19T06:24:19;14.90;;;2.67;;
39524;SDS011;25203;50.754;6.978;2023-09-19T06:26:21;13.77;;;3.70;;
39524;SDS011;25203;50.754;6.978;2023-09-19T06:28:21;8.60;;;2.92;;
39524;SDS011;25203;50.754;6.978;2023-09-19T06:30:25;9.52;;;2.50;;
39524;SDS011;25203;50.754;6.978;2023-09-19T06:32:29;9.77;;;3.25;;
39524;SDS011;25203;50.754;6.978;2023-09-19T06:34:29;13.70;;;3.35;;
39524;SDS011;25203;50.754;6.978;2023-09-19T06:36:30;10.48;;;3.20;;
39524;SDS011;25203;50.754;6.978;2023-09-19T06:38:30;15.45;;;3.40;;
39524;SDS011;25203;50.754;6.978;2023-09-19T06:40:34;13.55;;;2.65;;
39524;SDS011;25203;50.754;6.978;2023-09-19T06:42:35;8.20;;;2.95;;
39524;SDS011;25203;50.754;6.978;2023-09-19T06:44:37;13.27;;;2.63;;
39524;SDS011;25203;50.754;6.978;2023-09-19T06:46:37;14.05;;;3.38;;
39524;SDS011;25203;50.754;6.978;2023-09-19T06:48:40;14.40;;;3.40;;
39524;SDS011;25203;50.754;6.978;2023-09-19T06:50:44;16.52;;;3.83;;
39524;SDS011;25203;50.754;6.978;2023-09-19T06:52:44;13.32;;;3.17;;
39524;SDS011;25203;50.754;6.978;2023-09-19T06:54:50;14.95;;;2.90;;
39524;SDS011;25203;50.754;6.978;2023-09-19T06:56:52;9.45;;;2.67;;
39524;SDS011;25203;50.754;6.978;2023-09-19T06:58:55;11.73;;;2.90;;
39524;SDS011;25203;50.754;6.978;2023-09-19T07:00:55;11.57;;;3.03;;
39524;SDS011;25203;50.754;6.978;2023-09-19T07:03:00;11.10;;;2.85;;
39524;SDS011;25203;50.754;6.978;2023-09-19T07:05:04;14.40;;;3.20;;
39524;SDS011;25203;50.754;6.978;2023-09-19T07:07:05;14.75;;;3.42;;
39524;SDS011;25203;50.754;6.978;2023-09-19T07:09:07;11.13;;;2.88;;
39524;SDS011;25203;50.754;6.978;2023-09-19T07:11:08;13.57;;;3.10;;
39524;SDS011;25203;50.754;6.978;2023-09-19T07:13:08;11.88;;;2.33;;
39524;SDS011;25203;50.754;6.978;2023-09-19T07:15:10;11.52;;;3.55;;
39524;SDS011;25203;50.754;6.978;2023-09-19T07:17:11;15.65;;;3.30;;
39524;SDS011;25203;50.754;6.978;2023-09-19T07:19:11;14.50;;;3.35;;
39524;SDS011;25203;50.754;6.978;2023-09-19T07:21:15;12.05;;;3.88;;
39524;SDS011;25203;50.754;6.978;2023-09-19T07:23:19;11.00;;;2.78;;
39524;SDS011;25203;50.754;6.978;2023-09-19T07:25:21;8.13;;;2.80;;
39524;SDS011;25203;50.754;6.978;2023-09-19T07:27:22;11.98;;;2.75;;
39524;SDS011;25203;50.754;6.978;2023-09-19T07:29:23;11.60;;;3.08;;
39524;SDS011;25203;50.754;6.978;2023-09-19T07:31:24;9.48;;;2.40;;
39524;SDS011;25203;50.754;6.978;2023-09-19T07:33:25;11.02;;;2.67;;
39524;SDS011;25203;50.754;6.978;2023-09-19T07:35:26;11.18;;;2.75;;
39524;SDS011;25203;50.754;6.978;2023-09-19T07:37:27;9.93;;;2.58;;
39524;SDS011;25203;50.754;6.978;2023-09-19T07:39:31;12.60;;;3.10;;
39524;SDS011;25203;50.754;6.978;2023-09-19T07:41:31;11.30;;;3.03;;
39524;SDS011;25203;50.754;6.978;2023-09-19T07:43:32;9.88;;;2.90;;
39524;SDS011;25203;50.754;6.978;2023-09-19T07:45:33;13.18;;;3.50;;
39524;SDS011;25203;50.754;6.978;2023-09-19T07:47:34;11.80;;;2.95;;
39524;SDS011;25203;50.754;6.978;2023-09-19T07:49:36;15.15;;;2.97;;
39524;SDS011;25203;50.754;6.978;2023-09-19T07:51:37;11.20;;;3.17;;
39524;SDS011;25203;50.754;6.978;2023-09-19T07:53:38;10.93;;;3.00;;
39524;SDS011;25203;50.754;6.978;2023-09-19T07:55:39;12.10;;;3.55;;
39524;SDS011;25203;50.754;6.978;2023-09-19T07:57:41;9.02;;;2.70;;
39524;SDS011;25203;50.754;6.978;2023-09-19T07:59:42;8.57;;;2.72;;
39524;SDS011;25203;50.754;6.978;2023-09-19T08:01:43;8.35;;;2.67;;
39524;SDS011;25203;50.754;6.978;2023-09-19T08:03:44;7.53;;;2.38;;
39524;SDS011;25203;50.754;6.978;2023-09-19T08:05:45;10.50;;;2.58;;
39524;SDS011;25203;50.754;6.978;2023-09-19T08:07:45;11.07;;;2.70;;
39524;SDS011;25203;50.754;6.978;2023-09-19T08:09:49;6.55;;;2.45;;
39524;SDS011;25203;50.754;6.978;2023-09-19T08:11:50;11.18;;;2.55;;
39524;SDS011;25203;50.754;6.978;2023-09-19T08:13:50;10.57;;;2.80;;
39524;SDS011;25203;50.754;6.978;2023-09-19T08:15:52;9.63;;;2.45;;
39524;SDS011;25203;50.754;6.978;2023-09-19T08:17:53;13.15;;;2.70;;
39524;SDS011;25203;50.754;6.978;2023-09-19T08:19:53;8.40;;;2.38;;
39524;SDS011;25203;50.754;6.978;2023-09-19T08:21:55;13.32;;;2.95;;
39524;SDS011;25203;50.754;6.978;2023-09-19T08:23:58;11.32;;;3.38;;
39524;SDS011;25203;50.754;6.978;2023-09-19T08:25:59;8.73;;;2.75;;
39524;SDS011;25203;50.754;6.978;2023-09-19T08:28:03;12.43;;;2.70;;
39524;SDS011;25203;50.754;6.978;2023-09-19T08:30:06;12.35;;;3.35;;
39524;SDS011;25203;50.754;6.978;2023-09-19T08:32:07;11.82;;;3.00;;
39524;SDS011;25203;50.754;6.978;2023-09-19T08:34:07;12.70;;;2.83;;
39524;SDS011;25203;50.754;6.978;2023-09-19T08:36:08;10.68;;;3.55;;
39524;SDS011;25203;50.754;6.978;2023-09-19T08:38:09;7.75;;;2.25;;
39524;SDS011;25203;50.754;6.978;2023-09-19T08:40:10;9.70;;;3.13;;
39524;SDS011;25203;50.754;6.978;2023-09-19T08:42:13;8.23;;;2.63;;
39524;SDS011;25203;50.754;6.978;2023-09-19T08:44:14;12.00;;;2.78;;
39524;SDS011;25203;50.754;6.978;2023-09-19T08:46:15;7.38;;;2.83;;
39524;SDS011;25203;50.754;6.978;2023-09-19T08:48:23;8.63;;;2.40;;
39524;SDS011;25203;50.754;6.978;2023-09-19T08:50:30;8.75;;;2.45;;
39524;SDS011;25203;50.754;6.978;2023-09-19T08:52:37;10.95;;;2.58;;
39524;SDS011;25203;50.754;6.978;2023-09-19T08:54:41;11.05;;;2.90;;
39524;SDS011;25203;50.754;6.978;2023-09-19T08:56:45;8.15;;;2.25;;
39524;SDS011;25203;50.754;6.978;2023-09-19T08:58:49;7.28;;;2.63;;
39524;SDS011;25203;50.754;6.978;2023-09-19T09:00:53;7.60;;;2.40;;
39524;SDS011;25203;50.754;6.978;2023-09-19T09:02:55;7.60;;;2.38;;
39524;SDS011;25203;50.754;6.978;2023-09-19T09:04:57;8.20;;;2.95;;
39524;SDS011;25203;50.754;6.978;2023-09-19T09:06:59;8.73;;;2.33;;
39524;SDS011;25203;50.754;6.978;2023-09-19T09:09:00;6.55;;;2.50;;
39524;SDS011;25203;50.754;6.978;2023-09-19T09:11:03;11.52;;;3.20;;
39524;SDS011;25203;50.754;6.978;2023-09-19T09:13:04;7.30;;;2.47;;
39524;SDS011;25203;50.754;6.978;2023-09-19T09:15:06;9.40;;;2.33;;
39524;SDS011;25203;50.754;6.978;2023-09-19T09:17:08;6.85;;;2.15;;
39524;SDS011;25203;50.754;6.978;2023-09-19T09:19:11;10.13;;;2.95;;
39524;SDS011;25203;50.754;6.978;2023-09-19T09:21:13;9.02;;;2.70;;
39524;SDS011;25203;50.754;6.978;2023-09-19T09:23:15;10.07;;;2.42;;
39524;SDS011;25203;50.754;6.978;2023-09-19T09:25:16;7.45;;;2.50;;
39524;SDS011;25203;50.754;6.978;2023-09-19T09:27:18;7.68;;;2.60;;
39524;SDS011;25203;50.754;6.978;2023-09-19T09:29:31;8.80;;;2.10;;
39524;SDS011;25203;50.754;6.978;2023-09-19T09:31:43;7.25;;;2.53;;
39524;SDS011;25203;50.754;6.978;2023-09-19T09:33:51;8.57;;;3.03;;
39524;SDS011;25203;50.754;6.978;2023-09-19T09:35:56;8.23;;;2.47;;
39524;SDS011;25203;50.754;6.978;2023-09-19T09:38:00;7.53;;;2.38;;
39524;SDS011;25203;50.754;6.978;2023-09-19T09:40:07;8.32;;;2.85;;
39524;SDS011;25203;50.754;6.978;2023-09-19T09:42:29;9.57;;;2.20;;
39524;SDS011;25203;50.754;6.978;2023-09-19T09:44:35;7.75;;;2.58;;
39524;SDS011;25203;50.754;6.978;2023-09-19T09:46:35;7.35;;;2.30;;
39524;SDS011;25203;50.754;6.978;2023-09-19T09:49:12;10.60;;;2.30;;
39524;SDS011;25203;50.754;6.978;2023-09-19T09:51:38;9.88;;;2.50;;
39524;SDS011;25203;50.754;6.978;2023-09-19T09:53:39;11.13;;;2.65;;
39524;SDS011;25203;50.754;6.978;2023-09-19T09:55:56;9.00;;;2.60;;
39524;SDS011;25203;50.754;6.978;2023-09-19T09:58:18;8.00;;;2.72;;
39524;SDS011;25203;50.754;6.978;2023-09-19T10:00:18;6.45;;;2.33;;
39524;SDS011;25203;50.754;6.978;2023-09-19T10:02:30;5.18;;;2.03;;
39524;SDS011;25203;50.754;6.978;2023-09-19T10:04:40;5.97;;;2.60;;
39524;SDS011;25203;50.754;6.978;2023-09-19T10:06:51;8.32;;;2.47;;
39524;SDS011;25203;50.754;6.978;2023-09-19T10:09:01;6.75;;;2.05;;
39524;SDS011;25203;50.754;6.978;2023-09-19T10:11:20;6.32;;;2.17;;
39524;SDS011;25203;50.754;6.978;2023-09-19T10:13:30;5.45;;;2.08;;
39524;SDS011;25203;50.754;6.978;2023-09-19T10:15:35;6.40;;;2.13;;
39524;SDS011;25203;50.754;6.978;2023-09-19T10:17:37;6.78;;;2.13;;
39524;SDS011;25203;50.754;6.978;2023-09-19T10:19:48;6.65;;;2.00;;
39524;SDS011;25203;50.754;6.978;2023-09-19T10:21:59;8.50;;;2.10;;
39524;SDS011;25203;50.754;6.978;2023-09-19T10:24:03;6.95;;;2.05;;
39524;SDS011;25203;50.754;6.978;2023-09-19T10:26:07;4.47;;;2.08;;
39524;SDS011;25203;50.754;6.978;2023-09-19T10:28:10;8.32;;;2.45;;
39524;SDS011;25203;50.754;6.978;2023-09-19T10:30:13;5.22;;;2.13;;
39524;SDS011;25203;50.754;6.978;2023-09-19T10:32:16;4.20;;;1.73;;
39524;SDS011;25203;50.754;6.978;2023-09-19T10:34:19;4.45;;;2.00;;
39524;SDS011;25203;50.754;6.978;2023-09-19T10:36:25;5.88;;;2.40;;
39524;SDS011;25203;50.754;6.978;2023-09-19T10:38:30;5.72;;;2.15;;
39524;SDS011;25203;50.754;6.978;2023-09-19T10:40:35;6.65;;;2.20;;
39524;SDS011;25203;50.754;6.978;2023-09-19T10:42:40;6.18;;;2.17;;
39524;SDS011;25203;50.754;6.978;2023-09-19T10:44:42;8.88;;;2.30;;
39524;SDS011;25203;50.754;6.978;2023-09-19T10:46:45;7.30;;;2.42;;
39524;SDS011;25203;50.754;6.978;2023-09-19T10:48:48;7.25;;;2.33;;
39524;SDS011;25203;50.754;6.978;2023-09-19T10:53:03;5.75;;;2.10;;
39524;SDS011;25203;50.754;6.978;2023-09-19T10:55:07;5.78;;;2.20;;
39524;SDS011;25203;50.754;6.978;2023-09-19T10:57:09;5.82;;;2.15;;
39524;SDS011;25203;50.754;6.978;2023-09-19T10:59:11;10.98;;;2.30;;
39524;SDS011;25203;50.754;6.978;2023-09-19T11:01:14;5.28;;;2.22;;
39524;SDS011;25203;50.754;6.978;2023-09-19T11:05:19;8.40;;;3.03;;
39524;SDS011;25203;50.754;6.978;2023-09-19T11:07:20;4.95;;;2.50;;
39524;SDS011;25203;50.754;6.978;2023-09-19T11:09:20;4.82;;;2.08;;
39524;SDS011;25203;50.754;6.978;2023-09-19T11:13:39;7.88;;;2.65;;
39524;SDS011;25203;50.754;6.978;2023-09-19T11:18:06;8.13;;;2.72;;
39524;SDS011;25203;50.754;6.978;2023-09-19T11:20:40;6.30;;;2.33;;
39524;SDS011;25203;50.754;6.978;2023-09-19T11:25:13;6.05;;;2.20;;
39524;SDS011;25203;50.754;6.978;2023-09-19T11:30:25;9.25;;;2.67;;
39524;SDS011;25203;50.754;6.978;2023-09-19T11:35:08;7.85;;;2.55;;
39524;SDS011;25203;50.754;6.978;2023-09-19T11:39:24;6.32;;;2.20;;
39524;SDS011;25203;50.754;6.978;2023-09-19T11:41:36;7.85;;;2.47;;
39524;SDS011;25203;50.754;6.978;2023-09-19T11:43:37;6.18;;;2.45;;
39524;SDS011;25203;50.754;6.978;2023-09-19T11:47:46;8.35;;;2.42;;
39524;SDS011;25203;50.754;6.978;2023-09-19T11:49:47;8.02;;;2.40;;
39524;SDS011;25203;50.754;6.978;2023-09-19T11:51:48;7.65;;;2.00;;
39524;SDS011;25203;50.754;6.978;2023-09-19T11:53:54;4.25;;;1.95;;
39524;SDS011;25203;50.754;6.978;2023-09-19T11:55:57;5.15;;;2.00;;
39524;SDS011;25203;50.754;6.978;2023-09-19T11:58:00;7.32;;;2.00;;
39524;SDS011;25203;50.754;6.978;2023-09-19T12:00:01;6.22;;;2.25;;
39524;SDS011;25203;50.754;6.978;2023-09-19T12:02:04;9.02;;;2.75;;
39524;SDS011;25203;50.754;6.978;2023-09-19T12:04:08;6.57;;;2.03;;
39524;SDS011;25203;50.754;6.978;2023-09-19T12:06:11;6.50;;;2.50;;
39524;SDS011;25203;50.754;6.978;2023-09-19T12:08:16;7.15;;;2.53;;
39524;SDS011;25203;50.754;6.978;2023-09-19T12:10:18;6.72;;;2.40;;
39524;SDS011;25203;50.754;6.978;2023-09-19T12:12:22;8.52;;;2.38;;
39524;SDS011;25203;50.754;6.978;2023-09-19T12:14:27;5.20;;;2.15;;
39524;SDS011;25203;50.754;6.978;2023-09-19T12:16:28;6.55;;;2.17;;
39524;SDS011;25203;50.754;6.978;2023-09-19T12:18:30;6.72;;;2.17;;
39524;SDS011;25203;50.754;6.978;2023-09-19T12:20:44;6.47;;;2.67;;
39524;SDS011;25203;50.754;6.978;2023-09-19T12:22:49;6.93;;;2.13;;
39524;SDS011;25203;50.754;6.978;2023-09-19T12:24:49;8.40;;;2.90;;
39524;SDS011;25203;50.754;6.978;2023-09-19T12:26:51;6.80;;;2.15;;
39524;SDS011;25203;50.754;6.978;2023-09-19T12:28:52;8.23;;;2.40;;
39524;SDS011;25203;50.754;6.978;2023-09-19T12:30:54;7.60;;;2.67;;
39524;SDS011;25203;50.754;6.978;2023-09-19T12:32:55;9.43;;;2.15;;
39524;SDS011;25203;50.754;6.978;2023-09-19T12:34:58;6.00;;;1.90;;
39524;SDS011;25203;50.754;6.978;2023-09-19T12:39:24;5.70;;;2.00;;
39524;SDS011;25203;50.754;6.978;2023-09-19T12:41:26;6.55;;;2.15;;
39524;SDS011;25203;50.754;6.978;2023-09-19T12:43:30;6.30;;;2.15;;
39524;SDS011;25203;50.754;6.978;2023-09-19T12:45:36;5.43;;;1.70;;
39524;SDS011;25203;50.754;6.978;2023-09-19T12:47:39;6.93;;;1.70;;
39524;SDS011;25203;50.754;6.978;2023-09-19T12:52:06;7.60;;;1.90;;
39524;SDS011;25203;50.754;6.978;2023-09-19T12:54:06;7.13;;;1.92;;
39524;SDS011;25203;50.754;6.978;2023-09-19T12:56:11;7.55;;;1.75;;
39524;SDS011;25203;50.754;6.978;2023-09-19T12:58:14;5.82;;;1.85;;